sensor_id;sensor_type;location;lat;lon;timestamp;pressure;altitude;pressure_sealevel;temperature;humidity
47260;BME280;32999;52.412;4.890;2024-03-23T00:55:50;100964.84;;;8.29;100.00
47260;BME280;32999;52.412;4.890;2024-03-23T01:00:53;101049.69;;;8.81;100.00
47260;BME280;32999;52.412;4.890;2024-03-23T01:05:57;101046.53;;;8.77;100.00
47260;BME280;32999;52.412;4.890;2024-03-23T01:11:01;100961.34;;;8.20;100.00
47260;BME280;32999;52.412;4.890;2024-03-23T01:16:04;100930.06;;;7.98;100.00
47260;BME280;32999;52.412;4.890;2024-03-23T01:21:07;100945.06;;;8.07;100.00
47260;BME280;32999;52.412;4.890;2024-03-23T01:26:08;101001.97;;;8.39;100.00
47260;BME280;32999;52.412;4.890;2024-03-23T01:31:11;100996.63;;;8.23;100.00
47260;BME280;32999;52.412;4.890;2024-03-23T01:36:13;100995.28;;;8.27;100.00
47260;BME280;32999;52.412;4.890;2024-03-23T01:41:15;101013.78;;;8.12;100.00
47260;BME280;32999;52.412;4.890;2024-03-23T01:46:18;100933.41;;;7.68;100.00
47260;BME280;32999;52.412;4.890;2024-03-23T01:51:19;100994.28;;;7.95;100.00
47260;BME280;32999;52.412;4.890;2024-03-23T01:56:22;101006.59;;;8.04;100.00
47260;BME280;32999;52.412;4.890;2024-03-23T02:01:25;100900.97;;;7.40;100.00
47260;BME280;32999;52.412;4.890;2024-03-23T02:06:27;100981.13;;;7.94;100.00
47260;BME280;32999;52.412;4.890;2024-03-23T02:11:29;100978.16;;;7.97;100.00
47260;BME280;32999;52.412;4.890;2024-03-23T02:16:33;100983.31;;;8.06;100.00
47260;BME280;32999;52.412;4.890;2024-03-23T02:21:35;100997.31;;;8.16;100.00
47260;BME280;32999;52.412;4.890;2024-03-23T02:26:38;100973.19;;;8.10;100.00
47260;BME280;32999;52.412;4.890;2024-03-23T02:31:39;100926.78;;;7.88;100.00
47260;BME280;32999;52.412;4.890;2024-03-23T02:36:41;100960.50;;;8.20;100.00
47260;BME280;32999;52.412;4.890;2024-03-23T02:41:44;100957.69;;;8.22;100.00
47260;BME280;32999;52.412;4.890;2024-03-23T02:46:47;100947.88;;;8.14;100.00
47260;BME280;32999;52.412;4.890;2024-03-23T02:51:49;100943.88;;;8.02;100.00
47260;BME280;32999;52.412;4.890;2024-03-23T02:56:52;100944.38;;;7.97;100.00
47260;BME280;32999;52.412;4.890;2024-03-23T03:01:54;100936.41;;;8.13;100.00
47260;BME280;32999;52.412;4.890;2024-03-23T03:06:56;100948.69;;;8.23;100.00
47260;BME280;32999;52.412;4.890;2024-03-23T03:11:59;100905.44;;;8.20;100.00
47260;BME280;32999;52.412;4.890;2024-03-23T03:17:01;100909.09;;;8.19;100.00
47260;BME280;32999;52.412;4.890;2024-03-23T03:22:02;100920.75;;;8.35;100.00
47260;BME280;32999;52.412;4.890;2024-03-23T03:27:06;100911.91;;;8.26;100.00
47260;BME280;32999;52.412;4.890;2024-03-23T03:32:08;100781.16;;;7.33;100.00
47260;BME280;32999;52.412;4.890;2024-03-23T03:37:09;100877.50;;;8.08;100.00
47260;BME280;32999;52.412;4.890;2024-03-23T03:42:12;100919.72;;;8.52;100.00
47260;BME280;32999;52.412;4.890;2024-03-23T03:47:14;100888.44;;;8.30;100.00
47260;BME280;32999;52.412;4.890;2024-03-23T03:52:16;100815.69;;;7.74;100.00
47260;BME280;32999;52.412;4.890;2024-03-23T03:57:19;100808.72;;;7.73;100.00
47260;BME280;32999;52.412;4.890;2024-03-23T04:02:21;100851.59;;;7.78;100.00
47260;BME280;32999;52.412;4.890;2024-03-23T04:07:26;100888.16;;;8.08;100.00
47260;BME280;32999;52.412;4.890;2024-03-23T04:12:32;100883.16;;;8.05;100.00
47260;BME280;32999;52.412;4.890;2024-03-23T04:17:37;100879.03;;;7.87;100.00
47260;BME280;32999;52.412;4.890;2024-03-23T04:22:39;100875.84;;;8.07;100.00
47260;BME280;32999;52.412;4.890;2024-03-23T04:27:42;100877.81;;;8.22;100.00
47260;BME280;32999;52.412;4.890;2024-03-23T04:32:47;100776.03;;;7.40;100.00
47260;BME280;32999;52.412;4.890;2024-03-23T04:37:49;100865.38;;;8.14;100.00
47260;BME280;32999;52.412;4.890;2024-03-23T04:42:54;100862.53;;;8.07;100.00
47260;BME280;32999;52.412;4.890;2024-03-23T04:47:55;100869.38;;;8.10;100.00
47260;BME280;32999;52.412;4.890;2024-03-23T04:52:58;100825.84;;;7.78;100.00
47260;BME280;32999;52.412;4.890;2024-03-23T05:03:48;100868.53;;;7.12;100.00
47260;BME280;32999;52.412;4.890;2024-03-23T05:08:58;100867.06;;;7.34;100.00
47260;BME280;32999;52.412;4.890;2024-03-23T05:33:23;100879.84;;;7.22;100.00
47260;BME280;32999;52.412;4.890;2024-03-23T05:38:59;100861.56;;;7.11;100.00
47260;BME280;32999;52.412;4.890;2024-03-23T06:02:41;100848.97;;;7.54;100.00
47260;BME280;32999;52.412;4.890;2024-03-23T06:08:08;100818.88;;;7.29;100.00
47260;BME280;32999;52.412;4.890;2024-03-23T06:13:20;100847.63;;;7.58;100.00
47260;BME280;32999;52.412;4.890;2024-03-23T06:30:56;100859.25;;;7.81;100.00
47260;BME280;32999;52.412;4.890;2024-03-23T06:36:19;100856.94;;;7.86;100.00
47260;BME280;32999;52.412;4.890;2024-03-23T06:41:38;100827.00;;;7.68;100.00
47260;BME280;32999;52.412;4.890;2024-03-23T07:05:08;100825.28;;;8.15;100.00
47260;BME280;32999;52.412;4.890;2024-03-23T07:10:14;100855.06;;;8.11;100.00
47260;BME280;32999;52.412;4.890;2024-03-23T07:15:21;100851.91;;;7.99;100.00
47260;BME280;32999;52.412;4.890;2024-03-23T07:20:26;100857.75;;;8.58;100.00
47260;BME280;32999;52.412;4.890;2024-03-23T07:25:27;100830.59;;;8.94;100.00
47260;BME280;32999;52.412;4.890;2024-03-23T07:30:29;100802.88;;;9.26;100.00
47260;BME280;32999;52.412;4.890;2024-03-23T07:35:32;100765.53;;;9.26;100.00
47260;BME280;32999;52.412;4.890;2024-03-23T07:40:34;100797.81;;;10.20;100.00
47260;BME280;32999;52.412;4.890;2024-03-23T07:45:36;100788.66;;;10.15;100.00
47260;BME280;32999;52.412;4.890;2024-03-23T07:50:39;100879.06;;;11.06;100.00
47260;BME280;32999;52.412;4.890;2024-03-23T07:55:41;100860.16;;;11.72;100.00
47260;BME280;32999;52.412;4.890;2024-03-23T08:00:43;100876.44;;;12.26;100.00
47260;BME280;32999;52.412;4.890;2024-03-23T08:05:47;100804.63;;;10.88;100.00
47260;BME280;32999;52.412;4.890;2024-03-23T08:10:49;100791.00;;;10.33;100.00
47260;BME280;32999;52.412;4.890;2024-03-23T08:15:51;100859.50;;;11.06;100.00
47260;BME280;32999;52.412;4.890;2024-03-23T08:20:57;100774.13;;;11.53;100.00
47260;BME280;32999;52.412;4.890;2024-03-23T08:26:00;100857.28;;;13.18;100.00
47260;BME280;32999;52.412;4.890;2024-03-23T08:31:03;100782.03;;;11.12;100.00
47260;BME280;32999;52.412;4.890;2024-03-23T08:36:08;100745.38;;;9.23;100.00
47260;BME280;32999;52.412;4.890;2024-03-23T08:41:12;100858.38;;;10.64;100.00
47260;BME280;32999;52.412;4.890;2024-03-23T08:46:15;100840.44;;;10.58;100.00
47260;BME280;32999;52.412;4.890;2024-03-23T08:51:21;100850.25;;;12.21;100.00
47260;BME280;32999;52.412;4.890;2024-03-23T08:56:32;100769.41;;;10.85;100.00
47260;BME280;32999;52.412;4.890;2024-03-23T09:01:34;100811.59;;;10.09;100.00
47260;BME280;32999;52.412;4.890;2024-03-23T09:06:44;100862.09;;;10.34;100.00
47260;BME280;32999;52.412;4.890;2024-03-23T09:11:59;100860.97;;;10.13;100.00
47260;BME280;32999;52.412;4.890;2024-03-23T09:17:00;100857.50;;;10.57;100.00
47260;BME280;32999;52.412;4.890;2024-03-23T09:22:04;100843.91;;;10.88;100.00
47260;BME280;32999;52.412;4.890;2024-03-23T09:27:06;100840.88;;;9.88;100.00
47260;BME280;32999;52.412;4.890;2024-03-23T09:32:08;100873.69;;;10.41;100.00
47260;BME280;32999;52.412;4.890;2024-03-23T09:37:30;100856.38;;;10.51;100.00
47260;BME280;32999;52.412;4.890;2024-03-23T09:42:37;100834.25;;;10.13;100.00
47260;BME280;32999;52.412;4.890;2024-03-23T09:47:48;100847.44;;;10.44;100.00
47260;BME280;32999;52.412;4.890;2024-03-23T09:53:04;100880.03;;;10.69;100.00
47260;BME280;32999;52.412;4.890;2024-03-23T09:58:44;100853.69;;;12.15;100.00
47260;BME280;32999;52.412;4.890;2024-03-23T10:03:53;100841.00;;;13.92;100.00
47260;BME280;32999;52.412;4.890;2024-03-23T10:09:16;100853.31;;;13.14;100.00
47260;BME280;32999;52.412;4.890;2024-03-23T10:14:29;100745.66;;;12.49;100.00
47260;BME280;32999;52.412;4.890;2024-03-23T10:19:38;100849.09;;;11.53;100.00
47260;BME280;32999;52.412;4.890;2024-03-23T10:24:44;100821.22;;;10.84;100.00
47260;BME280;32999;52.412;4.890;2024-03-23T10:29:47;100850.50;;;10.27;100.00
47260;BME280;32999;52.412;4.890;2024-03-23T10:34:49;100860.38;;;10.18;100.00
47260;BME280;32999;52.412;4.890;2024-03-23T10:39:52;100854.69;;;11.80;100.00
47260;BME280;32999;52.412;4.890;2024-03-23T10:44:55;100850.38;;;12.95;100.00
47260;BME280;32999;52.412;4.890;2024-03-23T10:50:07;100826.00;;;15.07;100.00
47260;BME280;32999;52.412;4.890;2024-03-23T10:55:17;100768.28;;;14.58;100.00
47260;BME280;32999;52.412;4.890;2024-03-23T11:00:32;100856.75;;;12.81;100.00
47260;BME280;32999;52.412;4.890;2024-03-23T11:05:50;100835.13;;;13.03;100.00
47260;BME280;32999;52.412;4.890;2024-03-23T11:31:25;100845.03;;;12.13;100.00
47260;BME280;32999;52.412;4.890;2024-03-23T11:36:29;100839.97;;;14.06;100.00
47260;BME280;32999;52.412;4.890;2024-03-23T11:41:34;100837.69;;;13.24;100.00
47260;BME280;32999;52.412;4.890;2024-03-23T11:53:13;100794.56;;;11.12;100.00
47260;BME280;32999;52.412;4.890;2024-03-23T11:58:17;100860.66;;;11.18;100.00
47260;BME280;32999;52.412;4.890;2024-03-23T12:03:23;100847.53;;;10.21;100.00
47260;BME280;32999;52.412;4.890;2024-03-23T12:08:48;100816.72;;;9.44;100.00
47260;BME280;32999;52.412;4.890;2024-03-23T12:19:49;100817.53;;;12.80;100.00
47260;BME280;32999;52.412;4.890;2024-03-23T12:24:59;100798.91;;;13.59;100.00
47260;BME280;32999;52.412;4.890;2024-03-23T12:30:44;100808.41;;;11.86;100.00
47260;BME280;32999;52.412;4.890;2024-03-23T12:36:16;100793.66;;;11.26;100.00
47260;BME280;32999;52.412;4.890;2024-03-23T12:47:20;100797.31;;;10.02;100.00
47260;BME280;32999;52.412;4.890;2024-03-23T12:52:27;100789.88;;;10.12;100.00
47260;BME280;32999;52.412;4.890;2024-03-23T12:57:31;100784.53;;;10.12;100.00
47260;BME280;32999;52.412;4.890;2024-03-23T13:03:20;100799.06;;;9.43;100.00
47260;BME280;32999;52.412;4.890;2024-03-23T13:08:56;100792.06;;;9.79;100.00
47260;BME280;32999;52.412;4.890;2024-03-23T13:14:14;100793.41;;;11.00;100.00
47260;BME280;32999;52.412;4.890;2024-03-23T13:19:20;100770.78;;;12.01;100.00
47260;BME280;32999;52.412;4.890;2024-03-23T13:24:28;100753.22;;;12.39;100.00
47260;BME280;32999;52.412;4.890;2024-03-23T13:29:34;100757.94;;;12.31;100.00
47260;BME280;32999;52.412;4.890;2024-03-23T13:34:41;100753.94;;;11.51;100.00
47260;BME280;32999;52.412;4.890;2024-03-23T13:39:44;100715.75;;;11.36;100.00
47260;BME280;32999;52.412;4.890;2024-03-23T13:44:46;100719.78;;;12.22;100.00
47260;BME280;32999;52.412;4.890;2024-03-23T13:49:48;100745.00;;;12.41;100.00
47260;BME280;32999;52.412;4.890;2024-03-23T13:54:52;100667.13;;;11.67;100.00
47260;BME280;32999;52.412;4.890;2024-03-23T13:59:54;100745.47;;;11.75;100.00
47260;BME280;32999;52.412;4.890;2024-03-23T14:04:56;100731.94;;;11.55;100.00
47260;BME280;32999;52.412;4.890;2024-03-23T14:10:02;100676.66;;;11.41;100.00
47260;BME280;32999;52.412;4.890;2024-03-23T14:15:06;100747.31;;;11.75;100.00
47260;BME280;32999;52.412;4.890;2024-03-23T14:20:09;100740.69;;;11.71;100.00
47260;BME280;32999;52.412;4.890;2024-03-23T14:25:28;100740.88;;;11.41;100.00
47260;BME280;32999;52.412;4.890;2024-03-23T14:30:41;100717.94;;;11.81;100.00
47260;BME280;32999;52.412;4.890;2024-03-23T14:35:48;100725.66;;;11.70;100.00
47260;BME280;32999;52.412;4.890;2024-03-23T14:40:58;100679.78;;;11.17;100.00
47260;BME280;32999;52.412;4.890;2024-03-23T14:46:07;100714.28;;;11.33;100.00
47260;BME280;32999;52.412;4.890;2024-03-23T14:51:10;100720.19;;;11.01;100.00
47260;BME280;32999;52.412;4.890;2024-03-23T14:56:13;100710.13;;;10.81;100.00
47260;BME280;32999;52.412;4.890;2024-03-23T15:01:16;100705.63;;;10.61;100.00
47260;BME280;32999;52.412;4.890;2024-03-23T15:06:19;100657.81;;;10.30;100.00
47260;BME280;32999;52.412;4.890;2024-03-23T15:11:22;100698.09;;;10.71;100.00
47260;BME280;32999;52.412;4.890;2024-03-23T15:16:24;100698.03;;;11.07;100.00
47260;BME280;32999;52.412;4.890;2024-03-23T15:21:26;100604.19;;;10.52;100.00
47260;BME280;32999;52.412;4.890;2024-03-23T15:26:29;100661.34;;;11.01;100.00
47260;BME280;32999;52.412;4.890;2024-03-23T15:31:31;100690.66;;;10.87;100.00
47260;BME280;32999;52.412;4.890;2024-03-23T15:36:33;100642.34;;;10.10;100.00
47260;BME280;32999;52.412;4.890;2024-03-23T15:41:36;100649.69;;;10.38;100.00
47260;BME280;32999;52.412;4.890;2024-03-23T15:46:38;100644.25;;;10.16;100.00
47260;BME280;32999;52.412;4.890;2024-03-23T15:51:40;100604.88;;;9.68;100.00
47260;BME280;32999;52.412;4.890;2024-03-23T15:56:45;100653.69;;;10.12;100.00
47260;BME280;32999;52.412;4.890;2024-03-23T16:01:47;100633.31;;;9.61;100.00
47260;BME280;32999;52.412;4.890;2024-03-23T16:06:48;100643.34;;;9.59;100.00
47260;BME280;32999;52.412;4.890;2024-03-23T16:11:52;100565.53;;;8.81;100.00
47260;BME280;32999;52.412;4.890;2024-03-23T16:16:54;100687.78;;;9.51;100.00
47260;BME280;32999;52.412;4.890;2024-03-23T16:21:56;100575.81;;;8.84;100.00
47260;BME280;32999;52.412;4.890;2024-03-23T16:26:59;100588.28;;;8.69;100.00
47260;BME280;32999;52.412;4.890;2024-03-23T16:32:01;100666.69;;;9.27;100.00
47260;BME280;32999;52.412;4.890;2024-03-23T16:37:03;100662.66;;;8.94;100.00
47260;BME280;32999;52.412;4.890;2024-03-23T16:48:15;100665.47;;;8.77;100.00
47260;BME280;32999;52.412;4.890;2024-03-23T17:23:31;100631.59;;;8.86;100.00
47260;BME280;32999;52.412;4.890;2024-03-23T17:29:02;100629.00;;;8.78;100.00
47260;BME280;32999;52.412;4.890;2024-03-23T17:34:18;100637.03;;;8.93;100.00
47260;BME280;32999;52.412;4.890;2024-03-23T17:39:40;100637.84;;;8.93;100.00
47260;BME280;32999;52.412;4.890;2024-03-23T17:44:51;100640.38;;;9.09;100.00
47260;BME280;32999;52.412;4.890;2024-03-23T17:50:13;100612.72;;;9.10;100.00
47260;BME280;32999;52.412;4.890;2024-03-23T17:55:17;100561.38;;;8.64;100.00
47260;BME280;32999;52.412;4.890;2024-03-23T19:07:43;100617.44;;;6.92;100.00
47260;BME280;32999;52.412;4.890;2024-03-23T20:06:55;100479.34;;;5.54;100.00
47260;BME280;32999;52.412;4.890;2024-03-23T20:18:42;100560.38;;;6.31;100.00
47260;BME280;32999;52.412;4.890;2024-03-23T20:48:50;100539.28;;;6.54;100.00
47260;BME280;32999;52.412;4.890;2024-03-23T21:00:14;100523.19;;;6.47;100.00
47260;BME280;32999;52.412;4.890;2024-03-23T22:12:20;100410.53;;;7.73;100.00
47260;BME280;32999;52.412;4.890;2024-03-23T22:48:21;100348.81;;;7.93;100.00
47260;BME280;32999;52.412;4.890;2024-03-23T23:36:41;100323.75;;;7.12;100.00
